Time;durP1;ratioP1;P1;durP2;ratioP2;P2;SDS_P1;SDS_P2;PMS_P1;PMS_P2;Temp;Humidity;BMP_temperature;BMP_pressure;BME280_temperature;BME280_humidity;BME280_pressure;Samples;Min_cycle;Max_cycle;Signal;HPM_P1;HPM_P2
2023/03/09 00:02:12;;;;;;;49.80;20.77;;;;;;;;;;4985818;28;20955;-65
2023/03/09 00:04:57;;;;;;;46.30;20.47;;;;;;;;;;4987895;28;20809;-65
2023/03/09 00:07:23;;;;;;;50.40;20.67;;;;;;;;;;4986203;28;20473;-65
2023/03/09 00:10:10;;;;;;;52.63;20.90;;;;;;;;;;4987585;28;20464;-65
2023/03/09 00:12:36;;;;;;;46.87;19.37;;;;;;;;;;4967965;28;20457;-65
2023/03/09 00:15:21;;;;;;;45.23;20.23;;;;;;;;;;4987817;28;20454;-65
2023/03/09 00:17:48;;;;;;;45.73;19.63;;;;;;;;;;4986008;28;20508;-65
2023/03/09 00:20:32;;;;;;;51.73;19.63;;;;;;;;;;4987924;28;20479;-65
2023/03/09 00:23:08;;;;;;;53.40;20.37;;;;;;;;;;4985331;28;20986;-65
2023/03/09 00:25:52;;;;;;;49.27;18.50;;;;;;;;;;4985764;28;20520;-65
2023/03/09 00:28:19;;;;;;;47.13;18.30;;;;;;;;;;4987831;28;20476;-65
2023/03/09 00:31:04;;;;;;;51.77;19.37;;;;;;;;;;4993343;28;20859;-65
2023/03/09 00:33:33;;;;;;;42.03;18.67;;;;;;;;;;5005573;28;20463;-65
2023/03/09 00:36:00;;;;;;;45.57;17.23;;;;;;;;;;5002621;28;20977;-65
2023/03/09 00:38:28;;;;;;;51.77;20.10;;;;;;;;;;4997325;28;20457;-65
2023/03/09 00:40:54;;;;;;;42.73;19.47;;;;;;;;;;4987461;28;20814;-65
2023/03/09 00:43:21;;;;;;;56.33;23.73;;;;;;;;;;4985978;28;20944;-65
2023/03/09 00:45:48;;;;;;;61.93;23.80;;;;;;;;;;4987453;28;20467;-65
2023/03/09 00:48:14;;;;;;;67.77;23.30;;;;;;;;;;4984679;28;20448;-65
2023/03/09 00:50:41;;;;;;;58.10;21.37;;;;;;;;;;4987053;28;25126;-65
2023/03/09 00:53:08;;;;;;;56.57;21.67;;;;;;;;;;4985498;28;20467;-65
2023/03/09 00:55:35;;;;;;;53.17;20.70;;;;;;;;;;4986372;28;20511;-65
2023/03/09 00:58:01;;;;;;;50.67;20.67;;;;;;;;;;4984283;28;20971;-65
2023/03/09 01:00:29;;;;;;;46.73;20.03;;;;;;;;;;4987507;28;20460;-65
2023/03/09 01:02:56;;;;;;;58.07;20.57;;;;;;;;;;4983562;28;20944;-65
2023/03/09 01:05:23;;;;;;;51.10;20.93;;;;;;;;;;4986543;28;20455;-65
2023/03/09 01:07:50;;;;;;;52.27;21.13;;;;;;;;;;4950319;28;20470;-65
2023/03/09 01:10:17;;;;;;;55.97;20.80;;;;;;;;;;4986716;28;20484;-65
2023/03/09 01:13:01;;;;;;;58.27;23.10;;;;;;;;;;4984553;28;20883;-65
2023/03/09 01:15:29;;;;;;;64.60;22.03;;;;;;;;;;4986983;28;22347;-65
2023/03/09 01:18:13;;;;;;;61.37;22.20;;;;;;;;;;4985230;28;20443;-65
2023/03/09 01:20:40;;;;;;;59.73;23.67;;;;;;;;;;4987039;28;20887;-65
2023/03/09 01:23:07;;;;;;;62.23;23.00;;;;;;;;;;4984577;28;20974;-65
2023/03/09 01:25:34;;;;;;;59.73;22.60;;;;;;;;;;4986501;28;20456;-65
2023/03/09 01:28:00;;;;;;;60.27;23.00;;;;;;;;;;4983703;28;21185;-65
2023/03/09 01:30:27;;;;;;;69.03;23.63;;;;;;;;;;4989827;28;20454;-64
2023/03/09 01:32:54;;;;;;;61.13;23.50;;;;;;;;;;5004344;28;20956;-65
2023/03/09 01:35:21;;;;;;;62.33;23.90;;;;;;;;;;4986488;28;20965;-65
2023/03/09 01:38:05;;;;;;;66.30;24.27;;;;;;;;;;4983741;28;20998;-65
2023/03/09 01:40:33;;;;;;;67.00;22.73;;;;;;;;;;4986436;28;20456;-65
2023/03/09 02:18:21;;;;;;;52.07;20.23;;;;;;;;;;4950577;28;20465;-65
2023/03/09 02:21:17;;;;;;;46.77;18.03;;;;;;;;;;4984575;28;23855;-65
2023/03/09 02:24:04;;;;;;;51.43;19.37;;;;;;;;;;4902600;28;20552;-65
2023/03/09 02:26:31;;;;;;;53.03;18.90;;;;;;;;;;4936386;28;20586;-65
2023/03/09 02:28:59;;;;;;;47.20;19.53;;;;;;;;;;4983905;28;20467;-65
2023/03/09 02:31:25;;;;;;;48.77;20.73;;;;;;;;;;4993117;28;20471;-65
2023/03/09 02:33:52;;;;;;;48.30;19.97;;;;;;;;;;5023623;28;20572;-65
2023/03/09 02:36:20;;;;;;;49.80;18.77;;;;;;;;;;5003710;28;20472;-65
2023/03/09 02:38:48;;;;;;;49.10;18.70;;;;;;;;;;5004644;28;20453;-65
2023/03/09 02:41:15;;;;;;;44.37;18.00;;;;;;;;;;5004470;28;20462;-65
2023/03/09 02:43:43;;;;;;;48.73;19.07;;;;;;;;;;5005001;28;20458;-65
2023/03/09 02:46:10;;;;;;;41.93;16.77;;;;;;;;;;5004869;28;20464;-65
2023/03/09 02:48:39;;;;;;;35.70;15.83;;;;;;;;;;5005535;28;20984;-65
2023/03/09 02:51:06;;;;;;;39.90;17.30;;;;;;;;;;5005622;28;20482;-65
2023/03/09 02:53:33;;;;;;;38.57;14.83;;;;;;;;;;5006060;28;20434;-64
2023/03/09 02:56:00;;;;;;;38.27;15.67;;;;;;;;;;5003829;28;20484;-65
2023/03/09 02:58:27;;;;;;;36.70;15.63;;;;;;;;;;5003248;28;20482;-65
2023/03/09 03:00:54;;;;;;;43.40;15.63;;;;;;;;;;5010060;28;20455;-65
2023/03/09 03:03:39;;;;;;;38.47;15.33;;;;;;;;;;5010758;28;20456;-65
2023/03/09 03:06:06;;;;;;;38.33;15.87;;;;;;;;;;5006271;28;20465;-65
2023/03/09 03:08:50;;;;;;;35.03;14.63;;;;;;;;;;5002610;28;20449;-64
2023/03/09 03:11:17;;;;;;;41.07;16.30;;;;;;;;;;5002515;28;20450;-65
2023/03/09 03:14:04;;;;;;;38.87;15.23;;;;;;;;;;4986521;28;25268;-65
2023/03/09 03:16:32;;;;;;;39.03;15.20;;;;;;;;;;5001645;28;20465;-64
2023/03/09 03:18:59;;;;;;;36.00;14.77;;;;;;;;;;5002714;28;20558;-65
2023/03/09 03:21:30;;;;;;;38.27;15.97;;;;;;;;;;5001442;28;20559;-65
2023/03/09 03:23:57;;;;;;;40.37;16.00;;;;;;;;;;4986636;28;20532;-65
2023/03/09 03:26:26;;;;;;;46.53;19.07;;;;;;;;;;4964410;28;20890;-65
2023/03/09 03:28:58;;;;;;;45.27;18.50;;;;;;;;;;4965454;28;20539;-64
2023/03/09 03:31:27;;;;;;;57.88;23.00;;;;;;;;;;4973466;28;20435;-65
2023/03/09 03:33:56;;;;;;;62.03;22.73;;;;;;;;;;4984172;28;20222;-64
2023/03/09 03:36:24;;;;;;;41.50;17.00;;;;;;;;;;4983021;28;20517;-65
2023/03/09 03:38:51;;;;;;;47.30;18.17;;;;;;;;;;4981855;28;20451;-65
2023/03/09 03:41:18;;;;;;;51.60;19.70;;;;;;;;;;4995562;28;20462;-64
2023/03/09 03:43:48;;;;;;;50.43;19.47;;;;;;;;;;4980967;28;20462;-64
2023/03/09 03:46:15;;;;;;;49.80;19.97;;;;;;;;;;4984297;28;20462;-65
2023/03/09 03:48:42;;;;;;;49.57;19.20;;;;;;;;;;4965359;28;20459;-65
2023/03/09 03:51:11;;;;;;;46.07;19.43;;;;;;;;;;4965077;28;20922;-65
2023/03/09 03:53:57;;;;;;;47.00;19.20;;;;;;;;;;4981514;28;20458;-65
2023/03/09 03:56:25;;;;;;;45.30;19.77;;;;;;;;;;4964903;28;20974;-65
2023/03/09 03:59:12;;;;;;;48.17;18.73;;;;;;;;;;4979286;28;20494;-65
2023/03/09 04:01:39;;;;;;;45.40;19.97;;;;;;;;;;4947150;28;20818;-64
2023/03/09 04:04:08;;;;;;;44.53;18.47;;;;;;;;;;4962940;28;20496;-65
2023/03/09 04:06:39;;;;;;;40.47;16.93;;;;;;;;;;4961210;28;20471;-64
2023/03/09 04:09:07;;;;;;;45.30;18.73;;;;;;;;;;4945632;28;20483;-65
2023/03/09 04:11:34;;;;;;;42.70;17.53;;;;;;;;;;4963532;28;21054;-64
2023/03/09 04:14:01;;;;;;;39.43;16.20;;;;;;;;;;4962893;28;20456;-64
2023/03/09 04:16:28;;;;;;;36.77;15.57;;;;;;;;;;4962795;28;20468;-64
2023/03/09 04:18:55;;;;;;;41.63;17.37;;;;;;;;;;4961703;28;20479;-64
2023/03/09 04:21:23;;;;;;;42.97;16.50;;;;;;;;;;4961815;28;20486;-65
2023/03/09 04:23:50;;;;;;;41.53;15.87;;;;;;;;;;4964798;28;20461;-65
2023/03/09 04:26:17;;;;;;;36.90;16.87;;;;;;;;;;4979736;28;20461;-64
2023/03/09 04:29:06;;;;;;;37.87;17.00;;;;;;;;;;4981427;28;20466;-64
2023/03/09 04:31:33;;;;;;;36.90;15.63;;;;;;;;;;4994553;28;20497;-64
2023/03/09 04:34:01;;;;;;;40.03;15.93;;;;;;;;;;4984372;28;20462;-64
2023/03/09 04:36:28;;;;;;;35.13;15.77;;;;;;;;;;4972719;28;20483;-64
2023/03/09 04:39:12;;;;;;;37.00;15.63;;;;;;;;;;5004417;28;20790;-64
2023/03/09 04:41:39;;;;;;;39.13;15.37;;;;;;;;;;4989400;28;20544;-64
2023/03/09 04:44:26;;;;;;;35.00;14.80;;;;;;;;;;4987791;28;20447;-64
2023/03/09 04:46:53;;;;;;;38.00;14.43;;;;;;;;;;4989282;28;23174;-64
2023/03/09 04:49:19;;;;;;;39.27;15.63;;;;;;;;;;4988105;28;20458;-63
2023/03/09 04:51:46;;;;;;;40.43;15.83;;;;;;;;;;5006785;28;20472;-64
2023/03/09 04:54:14;;;;;;;47.90;16.40;;;;;;;;;;5004075;28;20457;-64
2023/03/09 04:56:41;;;;;;;34.30;15.63;;;;;;;;;;5005420;28;20457;-65
2023/03/09 04:59:13;;;;;;;35.43;14.60;;;;;;;;;;4983746;28;20468;-64
2023/03/09 05:01:41;;;;;;;33.33;15.23;;;;;;;;;;4975873;28;20458;-63
2023/03/09 05:04:12;;;;;;;35.67;14.23;;;;;;;;;;4987521;28;20860;-64
2023/03/09 05:06:47;;;;;;;35.83;14.53;;;;;;;;;;4967515;28;20462;-63
2023/03/09 05:09:14;;;;;;;40.13;15.33;;;;;;;;;;4976707;28;20470;-64
2023/03/09 05:11:41;;;;;;;40.70;14.27;;;;;;;;;;4979658;28;22600;-63
2023/03/09 05:14:09;;;;;;;36.47;15.20;;;;;;;;;;4986223;28;20471;-64
2023/03/09 05:16:54;;;;;;;33.30;14.10;;;;;;;;;;5002858;28;20450;-64
2023/03/09 05:19:23;;;;;;;30.53;13.67;;;;;;;;;;4999465;28;20489;-64
2023/03/09 05:21:54;;;;;;;29.83;14.27;;;;;;;;;;4976987;28;20590;-64
2023/03/09 05:24:21;;;;;;;30.03;13.10;;;;;;;;;;5001831;28;25006;-64
2023/03/09 05:26:48;;;;;;;36.63;14.20;;;;;;;;;;4978539;28;20521;-64
2023/03/09 05:29:34;;;;;;;34.90;13.60;;;;;;;;;;4996510;28;20463;-64
2023/03/09 05:32:03;;;;;;;30.17;12.83;;;;;;;;;;4972898;28;20537;-64
2023/03/09 05:34:47;;;;;;;27.17;12.50;;;;;;;;;;5004334;28;32920;-64
2023/03/09 05:37:16;;;;;;;39.70;14.40;;;;;;;;;;4986218;28;20459;-64
2023/03/09 05:40:06;;;;;;;31.77;13.00;;;;;;;;;;4980216;28;29261;-64
2023/03/09 05:42:35;;;;;;;30.23;13.03;;;;;;;;;;4997237;28;23882;-64
2023/03/09 05:45:04;;;;;;;29.43;12.70;;;;;;;;;;4976293;28;20483;-63
2023/03/09 05:47:31;;;;;;;33.87;13.13;;;;;;;;;;4986082;28;20536;-64
2023/03/09 05:49:58;;;;;;;31.87;14.63;;;;;;;;;;5004707;28;20516;-63
2023/03/09 05:52:24;;;;;;;30.03;12.73;;;;;;;;;;5000990;28;20476;-64
2023/03/09 05:54:51;;;;;;;30.83;11.63;;;;;;;;;;5015131;28;20473;-63
2023/03/09 05:57:19;;;;;;;32.63;12.57;;;;;;;;;;5003215;28;21015;-64
2023/03/09 05:59:49;;;;;;;27.90;12.27;;;;;;;;;;4998371;28;20799;-64
2023/03/09 06:02:16;;;;;;;30.63;13.30;;;;;;;;;;4998995;28;20464;-64
2023/03/09 06:04:48;;;;;;;26.83;12.63;;;;;;;;;;4987446;28;20453;-63
2023/03/09 06:07:15;;;;;;;30.90;12.80;;;;;;;;;;4998425;28;21947;-64
2023/03/09 06:09:45;;;;;;;30.77;12.93;;;;;;;;;;4988664;28;20462;-63
2023/03/09 06:12:17;;;;;;;27.97;12.43;;;;;;;;;;4982368;28;20464;-63
2023/03/09 06:15:02;;;;;;;29.70;13.43;;;;;;;;;;4983686;28;20482;-63
2023/03/09 06:17:30;;;;;;;42.20;18.07;;;;;;;;;;4966594;28;20465;-63
2023/03/09 06:19:58;;;;;;;34.67;15.20;;;;;;;;;;4966446;28;20537;-63
2023/03/09 06:22:25;;;;;;;38.23;16.67;;;;;;;;;;4984401;28;20541;-63
2023/03/09 06:24:52;;;;;;;42.70;18.43;;;;;;;;;;4983803;28;20459;-63
2023/03/09 06:27:19;;;;;;;31.80;14.63;;;;;;;;;;4985945;28;20915;-62
2023/03/09 06:29:46;;;;;;;36.13;14.80;;;;;;;;;;4981524;28;20477;-63
2023/03/09 06:32:13;;;;;;;33.03;13.83;;;;;;;;;;4968149;28;20459;-63
2023/03/09 06:34:57;;;;;;;32.27;13.60;;;;;;;;;;4965183;28;20449;-63
2023/03/09 06:37:24;;;;;;;34.17;14.70;;;;;;;;;;4967606;28;20567;-63
2023/03/09 06:39:50;;;;;;;43.40;17.77;;;;;;;;;;4966089;28;20466;-63
2023/03/09 06:42:17;;;;;;;63.30;26.23;;;;;;;;;;4985729;28;20455;-63
2023/03/09 06:44:50;;;;;;;42.40;17.03;;;;;;;;;;4965049;28;20462;-64
2023/03/09 06:47:34;;;;;;;43.30;18.30;;;;;;;;;;4967365;28;20466;-63
2023/03/09 06:50:06;;;;;;;49.83;22.77;;;;;;;;;;4964727;28;20465;-64
2023/03/09 06:52:35;;;;;;;46.77;21.27;;;;;;;;;;4965691;28;20880;-64
2023/03/09 06:55:03;;;;;;;48.17;20.80;;;;;;;;;;4967477;28;20463;-64
2023/03/09 06:57:51;;;;;;;41.33;18.93;;;;;;;;;;4965558;28;20455;-64
2023/03/09 07:00:38;;;;;;;43.63;18.83;;;;;;;;;;4967107;28;20993;-63
2023/03/09 07:03:05;;;;;;;42.80;18.30;;;;;;;;;;4965791;28;20573;-64
2023/03/09 07:05:32;;;;;;;38.90;18.30;;;;;;;;;;4984822;28;20462;-64
2023/03/09 07:07:59;;;;;;;39.57;20.93;;;;;;;;;;4983061;28;20455;-64
2023/03/09 07:10:25;;;;;;;41.03;20.23;;;;;;;;;;4985195;28;20491;-64
2023/03/09 07:12:52;;;;;;;45.37;22.93;;;;;;;;;;4963915;28;20470;-64
2023/03/09 07:15:18;;;;;;;60.00;27.97;;;;;;;;;;4985129;28;21208;-63
2023/03/09 07:17:45;;;;;;;52.73;25.30;;;;;;;;;;4977453;28;20517;-64
2023/03/09 07:20:12;;;;;;;51.70;24.83;;;;;;;;;;4984874;28;20490;-64
2023/03/09 07:22:38;;;;;;;51.60;25.00;;;;;;;;;;4982909;28;21020;-64
2023/03/09 07:25:05;;;;;;;42.27;21.40;;;;;;;;;;4984239;28;20503;-64
2023/03/09 07:27:33;;;;;;;50.63;23.43;;;;;;;;;;4983090;28;20524;-64
2023/03/09 07:29:59;;;;;;;45.50;23.53;;;;;;;;;;4984754;28;20459;-64
2023/03/09 07:32:26;;;;;;;38.50;19.87;;;;;;;;;;5020071;28;20464;-64
2023/03/09 07:34:53;;;;;;;32.97;16.60;;;;;;;;;;5023950;28;21037;-63
2023/03/09 07:37:21;;;;;;;37.27;16.00;;;;;;;;;;5015981;28;20458;-64
2023/03/09 07:39:48;;;;;;;39.53;15.87;;;;;;;;;;5018800;28;20528;-64
2023/03/09 07:42:15;;;;;;;29.50;14.27;;;;;;;;;;5017360;28;21007;-64
2023/03/09 07:45:14;;;;;;;29.93;14.07;;;;;;;;;;4984498;28;20461;-64
2023/03/09 07:47:41;;;;;;;24.90;13.60;;;;;;;;;;5001933;28;20961;-64
2023/03/09 07:50:07;;;;;;;24.30;13.70;;;;;;;;;;5004188;28;21139;-64
2023/03/09 07:52:34;;;;;;;26.23;11.07;;;;;;;;;;4984620;28;20458;-64
2023/03/09 07:55:22;;;;;;;23.33;12.23;;;;;;;;;;4985933;28;20449;-63
2023/03/09 07:57:49;;;;;;;24.50;12.03;;;;;;;;;;5002237;28;20470;-64
2023/03/09 08:00:22;;;;;;;26.00;12.97;;;;;;;;;;5004167;28;20536;-64
2023/03/09 08:02:49;;;;;;;26.70;14.50;;;;;;;;;;5000817;28;20244;-64
2023/03/09 08:05:16;;;;;;;68.90;31.07;;;;;;;;;;5003820;28;20457;-64
2023/03/09 08:07:44;;;;;;;84.43;40.07;;;;;;;;;;5002032;28;20512;-64
2023/03/09 08:10:10;;;;;;;77.37;36.07;;;;;;;;;;5002002;28;20526;-64
2023/03/09 08:12:37;;;;;;;101.57;44.73;;;;;;;;;;5004831;28;20891;-64
2023/03/09 08:15:04;;;;;;;31.27;17.67;;;;;;;;;;5005655;28;20466;-64
2023/03/09 08:17:31;;;;;;;87.83;45.03;;;;;;;;;;5007428;28;20833;-64
2023/03/09 08:20:00;;;;;;;78.37;38.97;;;;;;;;;;5005960;28;20533;-64
2023/03/09 08:22:26;;;;;;;36.13;20.50;;;;;;;;;;5007374;28;21074;-63
2023/03/09 08:24:53;;;;;;;43.63;22.40;;;;;;;;;;5004257;28;20932;-64
2023/03/09 08:27:20;;;;;;;36.97;16.50;;;;;;;;;;5007342;28;20458;-64
2023/03/09 08:29:46;;;;;;;38.37;19.53;;;;;;;;;;5004247;28;20459;-63
2023/03/09 08:32:13;;;;;;;34.93;17.70;;;;;;;;;;5020897;28;23923;-63
2023/03/09 08:34:40;;;;;;;29.60;14.63;;;;;;;;;;5024178;28;20457;-63
2023/03/09 08:37:07;;;;;;;29.00;15.83;;;;;;;;;;5021343;28;20469;-64
2023/03/09 08:39:33;;;;;;;28.57;15.43;;;;;;;;;;5027538;28;20449;-63
2023/03/09 08:42:00;;;;;;;27.77;12.73;;;;;;;;;;5017905;28;20480;-64
2023/03/09 08:44:27;;;;;;;27.97;12.80;;;;;;;;;;5024374;28;21033;-63
2023/03/09 08:46:55;;;;;;;25.17;10.60;;;;;;;;;;5023925;28;20222;-63
2023/03/09 08:49:21;;;;;;;18.77;8.90;;;;;;;;;;5021181;28;20862;-63
2023/03/09 08:51:50;;;;;;;6.33;3.47;;;;;;;;;;5023850;28;20245;-63
2023/03/09 10:33:28;;;;;;;3.63;1.90;;;;;;;;;;4981126;28;20323;-64
2023/03/09 10:35:57;;;;;;;3.40;1.00;;;;;;;;;;4998567;28;20224;-64
2023/03/09 10:38:24;;;;;;;3.13;1.50;;;;;;;;;;4998021;28;20294;-64
2023/03/09 10:40:54;;;;;;;7.70;3.03;;;;;;;;;;4985303;28;20239;-64
2023/03/09 10:43:30;;;;;;;6.33;2.30;;;;;;;;;;4983725;28;20228;-64
2023/03/09 10:46:00;;;;;;;3.73;1.43;;;;;;;;;;4983275;28;20279;-63
2023/03/09 10:48:27;;;;;;;4.10;1.53;;;;;;;;;;4983379;28;20307;-64
2023/03/09 10:51:02;;;;;;;6.13;2.60;;;;;;;;;;4985360;28;20247;-64
2023/03/09 10:53:36;;;;;;;2.13;1.10;;;;;;;;;;4983832;28;20259;-64
2023/03/09 10:56:16;;;;;;;3.30;1.50;;;;;;;;;;4983337;28;20458;-64
2023/03/09 10:58:43;;;;;;;2.20;1.30;;;;;;;;;;4982994;28;20862;-64
2023/03/09 11:01:12;;;;;;;2.70;1.17;;;;;;;;;;4984715;28;20232;-64
2023/03/09 11:03:41;;;;;;;3.10;1.40;;;;;;;;;;4983477;28;20351;-64
2023/03/09 11:06:09;;;;;;;5.50;2.00;;;;;;;;;;4983188;28;20234;-64
2023/03/09 11:08:35;;;;;;;2.50;0.97;;;;;;;;;;4985150;28;20227;-64
2023/03/09 11:11:24;;;;;;;2.10;0.70;;;;;;;;;;4982697;28;20454;-64
2023/03/09 11:13:51;;;;;;;3.83;0.80;;;;;;;;;;4982887;28;20254;-64
2023/03/09 11:16:25;;;;;;;1.30;0.40;;;;;;;;;;4999623;28;20733;-64
2023/03/09 11:19:04;;;;;;;2.10;0.60;;;;;;;;;;4983123;28;20232;-64
2023/03/09 11:21:31;;;;;;;3.10;1.03;;;;;;;;;;4983510;28;20242;-64
2023/03/09 11:23:58;;;;;;;1.90;0.60;;;;;;;;;;4984179;28;20470;-64
2023/03/09 11:26:30;;;;;;;1.57;0.53;;;;;;;;;;4981420;28;20306;-64
2023/03/09 11:29:06;;;;;;;3.60;0.60;;;;;;;;;;4984729;28;20470;-64
2023/03/09 11:31:33;;;;;;;1.53;0.80;;;;;;;;;;5000616;28;20457;-64
2023/03/09 11:34:00;;;;;;;4.23;0.80;;;;;;;;;;5019736;28;20239;-64
2023/03/09 11:36:46;;;;;;;1.47;0.67;;;;;;;;;;5021460;28;20449;-64
2023/03/09 11:39:30;;;;;;;1.50;0.60;;;;;;;;;;5020544;28;20467;-64
2023/03/09 11:41:56;;;;;;;1.47;0.60;;;;;;;;;;5019706;28;20764;-64
2023/03/09 11:44:25;;;;;;;1.73;0.60;;;;;;;;;;5017055;28;20457;-64
2023/03/09 11:46:52;;;;;;;5.23;1.83;;;;;;;;;;5015093;28;20309;-64
2023/03/09 11:49:20;;;;;;;1.07;0.60;;;;;;;;;;5004081;28;21216;-64
2023/03/09 11:51:50;;;;;;;1.00;0.30;;;;;;;;;;5022759;28;20225;-64
2023/03/09 11:54:26;;;;;;;4.40;1.17;;;;;;;;;;5015540;28;20226;-64
2023/03/09 11:56:53;;;;;;;5.23;1.53;;;;;;;;;;5019230;28;20456;-63
2023/03/09 11:59:49;;;;;;;1.47;0.60;;;;;;;;;;5019632;28;20465;-64
2023/03/09 12:02:18;;;;;;;2.43;0.80;;;;;;;;;;5008720;28;20242;-64
2023/03/09 12:04:46;;;;;;;3.00;0.87;;;;;;;;;;5020302;28;20476;-64
2023/03/09 12:07:16;;;;;;;1.47;0.50;;;;;;;;;;5012784;28;23728;-64
2023/03/09 12:09:52;;;;;;;1.80;0.60;;;;;;;;;;5017914;28;20460;-63
2023/03/09 12:12:37;;;;;;;1.07;0.60;;;;;;;;;;5016824;28;20976;-64
2023/03/09 12:15:11;;;;;;;5.17;1.57;;;;;;;;;;5020177;28;20233;-64
2023/03/09 12:17:46;;;;;;;3.03;0.80;;;;;;;;;;5018737;28;20990;-63
2023/03/09 12:20:24;;;;;;;0.97;0.37;;;;;;;;;;5015392;28;20496;-64
2023/03/09 12:22:50;;;;;;;4.63;1.80;;;;;;;;;;5020229;28;20596;-63
2023/03/09 12:25:18;;;;;;;1.47;0.50;;;;;;;;;;5022841;28;20453;-63
2023/03/09 12:27:54;;;;;;;1.47;0.50;;;;;;;;;;5020567;28;20231;-63
2023/03/09 12:30:27;;;;;;;1.63;0.47;;;;;;;;;;5016450;28;20453;-64
2023/03/09 12:32:56;;;;;;;1.07;0.60;;;;;;;;;;5001698;28;20536;-64
2023/03/09 12:35:23;;;;;;;5.30;2.00;;;;;;;;;;4999353;28;20457;-63
2023/03/09 12:37:50;;;;;;;31.83;2.37;;;;;;;;;;5003228;28;20539;-63
2023/03/09 12:40:17;;;;;;;1.50;0.60;;;;;;;;;;4993293;28;20775;-63
2023/03/09 12:42:45;;;;;;;1.40;0.40;;;;;;;;;;5003679;28;20522;-63
2023/03/09 12:45:18;;;;;;;0.50;0.30;;;;;;;;;;5000383;28;20231;-63
2023/03/09 12:47:45;;;;;;;1.37;0.33;;;;;;;;;;5000448;28;20506;-64
2023/03/09 12:50:17;;;;;;;3.60;0.60;;;;;;;;;;5000733;28;20489;-64
2023/03/09 12:52:49;;;;;;;2.80;0.60;;;;;;;;;;4997106;28;20458;-63
2023/03/09 12:55:19;;;;;;;1.20;0.57;;;;;;;;;;4998305;28;20232;-63
2023/03/09 12:57:46;;;;;;;0.47;0.30;;;;;;;;;;5001239;28;20470;-65
2023/03/09 13:00:27;;;;;;;2.50;0.50;;;;;;;;;;5002956;28;20236;-64
2023/03/09 13:02:56;;;;;;;3.67;0.30;;;;;;;;;;4999753;28;20469;-64
2023/03/09 13:05:24;;;;;;;1.67;0.50;;;;;;;;;;5002800;28;20235;-64
2023/03/09 13:07:55;;;;;;;2.77;1.10;;;;;;;;;;5000323;28;20465;-64
2023/03/09 13:10:24;;;;;;;3.37;0.93;;;;;;;;;;5003370;28;20462;-64
2023/03/09 13:12:54;;;;;;;2.53;0.60;;;;;;;;;;5002757;28;20491;-64
2023/03/09 13:15:23;;;;;;;2.80;1.00;;;;;;;;;;4998740;28;20235;-64
2023/03/09 13:18:03;;;;;;;3.33;1.77;;;;;;;;;;5000577;28;20462;-64
2023/03/09 13:20:36;;;;;;;3.33;1.77;;;;;;;;;;5003261;28;20225;-64
2023/03/09 13:23:08;;;;;;;1.50;0.50;;;;;;;;;;5004637;28;20821;-64
2023/03/09 13:25:45;;;;;;;12.07;4.07;;;;;;;;;;4987021;28;20522;-64
2023/03/09 13:28:15;;;;;;;22.13;8.07;;;;;;;;;;5003372;28;20494;-64
2023/03/09 13:30:42;;;;;;;6.27;2.90;;;;;;;;;;4985126;28;20479;-64
2023/03/09 13:33:14;;;;;;;8.27;3.33;;;;;;;;;;5008687;28;20235;-64
2023/03/09 13:36:03;;;;;;;5.63;1.70;;;;;;;;;;4970134;28;20457;-64
2023/03/09 13:38:30;;;;;;;3.23;1.00;;;;;;;;;;4964149;28;20553;-64
2023/03/09 13:40:58;;;;;;;4.17;1.20;;;;;;;;;;4975600;28;20996;-64
2023/03/09 13:43:25;;;;;;;2.77;0.73;;;;;;;;;;5002296;28;20484;-64
2023/03/09 13:46:01;;;;;;;4.57;1.50;;;;;;;;;;4976035;28;20533;-64
2023/03/09 13:48:46;;;;;;;11.13;3.10;;;;;;;;;;4974514;28;20454;-64
2023/03/09 13:51:27;;;;;;;28.20;7.50;;;;;;;;;;4975599;28;21823;-64
2023/03/09 13:53:53;;;;;;;8.87;2.87;;;;;;;;;;4973549;28;20478;-64
2023/03/09 13:56:20;;;;;;;9.20;2.97;;;;;;;;;;5002709;28;20576;-64
2023/03/09 13:58:49;;;;;;;3.87;1.00;;;;;;;;;;5005509;28;20463;-64
2023/03/09 14:01:23;;;;;;;5.77;2.57;;;;;;;;;;5003851;28;20750;-64
2023/03/09 14:03:51;;;;;;;13.00;4.43;;;;;;;;;;4984871;28;20450;-64
2023/03/09 14:06:20;;;;;;;8.73;3.57;;;;;;;;;;5003054;28;20585;-64
2023/03/09 14:09:20;;;;;;;9.30;4.10;;;;;;;;;;5005181;28;20230;-64
2023/03/09 14:11:47;;;;;;;9.20;3.17;;;;;;;;;;4974951;28;20952;-64
2023/03/09 14:14:17;;;;;;;5.80;2.33;;;;;;;;;;5003783;28;20461;-64
2023/03/09 14:16:44;;;;;;;4.87;1.27;;;;;;;;;;5003057;28;20550;-64
2023/03/09 14:19:37;;;;;;;8.40;2.93;;;;;;;;;;4987476;28;20465;-64
2023/03/09 14:22:05;;;;;;;4.43;0.80;;;;;;;;;;4999519;28;20957;-64
2023/03/09 14:24:33;;;;;;;7.67;2.40;;;;;;;;;;4972156;28;20533;-64
2023/03/09 14:27:20;;;;;;;7.87;2.73;;;;;;;;;;5004354;28;20219;-64
2023/03/09 14:29:47;;;;;;;6.87;2.27;;;;;;;;;;4968634;28;20462;-64
2023/03/09 14:32:22;;;;;;;12.90;3.10;;;;;;;;;;5005603;28;20458;-64
2023/03/09 14:34:52;;;;;;;19.83;4.70;;;;;;;;;;5003234;28;20454;-64
2023/03/09 14:37:24;;;;;;;13.50;3.70;;;;;;;;;;4971701;28;20888;-64
2023/03/09 14:40:15;;;;;;;17.13;4.10;;;;;;;;;;5001141;28;20474;-64
2023/03/09 14:42:41;;;;;;;14.13;3.37;;;;;;;;;;4977972;28;20472;-64
2023/03/09 14:45:15;;;;;;;8.67;2.30;;;;;;;;;;5004866;28;20465;-64
2023/03/09 14:47:42;;;;;;;8.27;2.00;;;;;;;;;;5002800;28;20449;-64
2023/03/09 14:50:15;;;;;;;4.47;1.33;;;;;;;;;;5004688;28;20453;-64
2023/03/09 14:52:42;;;;;;;1.67;0.70;;;;;;;;;;5002278;28;20529;-64
2023/03/09 14:55:12;;;;;;;2.40;0.93;;;;;;;;;;5004202;28;20472;-64
2023/03/09 14:57:39;;;;;;;2.10;0.80;;;;;;;;;;5002515;28;20481;-64
2023/03/09 15:00:06;;;;;;;3.50;0.90;;;;;;;;;;5004450;28;20993;-64
2023/03/09 15:02:33;;;;;;;3.80;1.37;;;;;;;;;;5002700;28;20458;-64
2023/03/09 15:05:00;;;;;;;3.83;1.30;;;;;;;;;;4972915;28;20458;-64
2023/03/09 15:07:27;;;;;;;3.73;0.90;;;;;;;;;;5002926;28;20462;-64
2023/03/09 15:09:55;;;;;;;1.50;0.70;;;;;;;;;;5003755;28;20468;-64
2023/03/09 15:12:22;;;;;;;5.60;1.37;;;;;;;;;;5003067;28;20598;-64
2023/03/09 15:14:49;;;;;;;6.67;2.73;;;;;;;;;;4988318;28;20462;-64
2023/03/09 15:17:17;;;;;;;171.73;83.67;;;;;;;;;;5002116;28;20229;-64
2023/03/09 15:19:44;;;;;;;7.00;3.13;;;;;;;;;;5003387;28;20487;-64
2023/03/09 15:22:12;;;;;;;275.83;107.60;;;;;;;;;;4981613;28;20492;-64
2023/03/09 15:24:38;;;;;;;153.57;69.83;;;;;;;;;;5001858;28;20849;-64
2023/03/09 15:27:05;;;;;;;23.97;11.50;;;;;;;;;;4976220;28;20562;-64
2023/03/09 15:29:32;;;;;;;27.73;12.43;;;;;;;;;;5001426;28;20465;-64
2023/03/09 15:32:04;;;;;;;107.33;63.50;;;;;;;;;;5015809;28;20462;-64
2023/03/09 15:34:31;;;;;;;45.23;24.40;;;;;;;;;;4988218;28;20464;-64
2023/03/09 15:36:57;;;;;;;3.63;2.20;;;;;;;;;;5003780;28;20450;-64
2023/03/09 15:39:24;;;;;;;6.43;1.50;;;;;;;;;;5000637;28;20548;-64
2023/03/09 15:41:51;;;;;;;29.67;15.70;;;;;;;;;;5003597;28;20458;-64
2023/03/09 15:44:17;;;;;;;18.93;10.40;;;;;;;;;;4997252;28;20231;-64
2023/03/09 15:46:45;;;;;;;5.03;2.20;;;;;;;;;;5003892;28;20609;-64
2023/03/09 15:49:12;;;;;;;5.20;2.33;;;;;;;;;;5000499;28;20452;-64
2023/03/09 15:51:38;;;;;;;4.07;2.20;;;;;;;;;;5004205;28;20978;-64
2023/03/09 15:54:05;;;;;;;5.37;2.10;;;;;;;;;;5000458;28;20458;-64
2023/03/09 15:56:34;;;;;;;6.70;4.97;;;;;;;;;;5001661;28;20815;-64
2023/03/09 15:59:01;;;;;;;7.23;2.63;;;;;;;;;;5003322;28;21061;-64
2023/03/09 16:01:28;;;;;;;11.77;10.70;;;;;;;;;;5001708;28;20454;-64
2023/03/09 16:03:55;;;;;;;6.50;3.73;;;;;;;;;;5004139;28;20537;-63
2023/03/09 16:06:22;;;;;;;14.37;8.73;;;;;;;;;;5002518;28;20451;-64
2023/03/09 16:08:49;;;;;;;13.33;6.83;;;;;;;;;;5347660;23;20451;-64
2023/03/09 16:11:15;;;;;;;5.90;2.83;;;;;;;;;;5003600;28;20553;-64
2023/03/09 16:13:42;;;;;;;9.07;5.40;;;;;;;;;;5001721;28;20446;-63
2023/03/09 16:16:09;;;;;;;7.93;3.30;;;;;;;;;;5003864;28;21038;-63
2023/03/09 16:18:36;;;;;;;35.03;14.93;;;;;;;;;;4984798;28;21242;-63
2023/03/09 16:21:03;;;;;;;12.20;5.20;;;;;;;;;;5003738;28;20468;-64
2023/03/09 16:23:30;;;;;;;9.73;5.97;;;;;;;;;;4998206;28;20459;-64
2023/03/09 16:25:56;;;;;;;15.17;5.03;;;;;;;;;;5002766;28;20463;-64
2023/03/09 16:28:23;;;;;;;28.77;10.77;;;;;;;;;;4998774;28;21031;-64
2023/03/09 16:30:50;;;;;;;38.33;14.07;;;;;;;;;;4985942;28;20466;-64
2023/03/09 16:33:18;;;;;;;24.97;10.63;;;;;;;;;;4987828;28;20520;-65
2023/03/09 16:35:45;;;;;;;31.20;12.83;;;;;;;;;;5001277;28;20477;-64
2023/03/09 16:38:12;;;;;;;20.40;7.27;;;;;;;;;;4959736;28;20589;-64
2023/03/09 16:40:39;;;;;;;13.47;6.00;;;;;;;;;;4996320;28;20244;-64
2023/03/09 16:43:06;;;;;;;9.40;3.30;;;;;;;;;;4994563;28;21035;-65
2023/03/09 16:45:33;;;;;;;6.80;2.60;;;;;;;;;;4978619;28;20466;-64
2023/03/09 16:48:00;;;;;;;9.27;3.10;;;;;;;;;;4980554;28;20546;-64
2023/03/09 16:50:30;;;;;;;7.20;2.03;;;;;;;;;;4980532;28;20472;-64
2023/03/09 16:52:57;;;;;;;11.23;2.67;;;;;;;;;;4998127;28;20486;-64
2023/03/09 16:55:24;;;;;;;29.87;13.67;;;;;;;;;;4999968;28;20478;-64
2023/03/09 16:57:51;;;;;;;16.73;8.50;;;;;;;;;;4979862;28;20968;-63
2023/03/09 17:00:18;;;;;;;14.70;6.63;;;;;;;;;;4999620;28;20475;-63